createdAt,value
2022-09-05T00:00:11.518Z,2.22
2022-09-05T00:02:54.250Z,2.13
2022-09-05T00:06:01.975Z,2.35
2022-09-05T00:09:24.793Z,2.28
2022-09-05T00:12:00.527Z,1.85
2022-09-05T00:15:15.021Z,1.98
2022-09-05T00:22:12.861Z,2.25
2022-09-05T00:24:22.716Z,2.10
2022-09-05T00:25:33.294Z,1.90
2022-09-05T00:28:38.694Z,2.05
2022-09-05T00:31:53.281Z,2.00
2022-09-05T00:34:51.457Z,2.22
2022-09-05T00:37:34.453Z,1.92
2022-09-05T00:40:31.913Z,1.98
2022-09-05T00:43:08.567Z,1.83
2022-09-05T00:45:45.081Z,2.33
2022-09-05T00:48:52.170Z,2.58
2022-09-05T00:51:28.467Z,2.10
2022-09-05T00:54:15.788Z,2.25
2022-09-05T00:57:37.991Z,2.15
2022-09-05T01:00:47.376Z,2.20
2022-09-05T01:03:30.333Z,2.20
2022-09-05T01:06:35.977Z,1.95
2022-09-05T01:09:24.497Z,2.13
2022-09-05T01:12:12.499Z,2.13
2022-09-05T01:15:10.839Z,2.38
2022-09-05T01:18:00.427Z,2.28
2022-09-05T01:20:48.960Z,1.90
2022-09-05T01:24:02.788Z,1.90
2022-09-05T01:28:03.875Z,2.20
2022-09-05T01:31:23.449Z,2.28
2022-09-05T01:34:18.069Z,2.05
2022-09-05T01:37:33.376Z,1.90
2022-09-05T01:40:25.337Z,2.08
2022-09-05T01:43:11.310Z,1.83
2022-09-05T01:46:07.423Z,1.98
2022-09-05T01:49:11.428Z,2.20
2022-09-05T01:51:53.467Z,2.13
2022-09-05T01:54:31.585Z,2.55
2022-09-05T01:57:19.571Z,2.17
2022-09-05T02:00:35.296Z,2.15
2022-09-05T02:03:22.180Z,2.22
2022-09-05T02:06:08.391Z,2.20
2022-09-05T02:09:20.343Z,2.25
2022-09-05T02:11:58.376Z,1.92
2022-09-05T02:15:19.421Z,2.20
2022-09-05T02:17:54.311Z,2.40
2022-09-05T02:20:34.846Z,2.35
2022-09-05T02:23:40.495Z,2.30
2022-09-05T02:26:24.765Z,2.28
2022-09-05T02:29:29.979Z,2.50
2022-09-05T02:32:17.409Z,2.03
2022-09-05T02:35:13.980Z,2.60
2022-09-05T02:39:34.877Z,2.47
2022-09-05T02:45:07.731Z,2.72
2022-09-05T02:45:21.698Z,2.50
2022-09-05T02:47:41.559Z,2.65
2022-09-05T02:52:54.910Z,2.40
2022-09-05T02:57:34.739Z,2.40
2022-09-05T02:57:35.917Z,2.70
2022-09-05T02:59:49.394Z,2.40
2022-09-05T03:03:03.450Z,2.33
2022-09-05T03:05:47.363Z,2.63
2022-09-05T03:08:20.616Z,2.92
2022-09-05T03:10:56.932Z,2.70
2022-09-05T03:13:58.178Z,2.70
2022-09-05T03:16:52.113Z,2.58
2022-09-05T03:19:25.189Z,2.50
2022-09-05T03:22:23.026Z,2.65
2022-09-05T03:25:30.550Z,2.60
2022-09-05T03:28:19.124Z,2.40
2022-09-05T03:31:37.601Z,2.60
2022-09-05T03:34:26.365Z,2.50
2022-09-05T03:37:24.027Z,2.65
2022-09-05T03:40:36.722Z,2.90
2022-09-05T03:43:35.185Z,2.53
2022-09-05T03:46:42.626Z,2.83
2022-09-05T03:53:16.415Z,3.08
2022-09-05T03:57:11.564Z,2.47
2022-09-05T03:57:15.587Z,2.90
2022-09-05T03:59:47.559Z,2.75
2022-09-05T04:07:38.819Z,2.40
2022-09-05T04:08:27.923Z,2.55
2022-09-05T04:08:50.172Z,2.65
2022-09-05T04:11:48.481Z,2.85
2022-09-05T04:14:55.813Z,3.00
2022-09-05T04:18:03.776Z,2.72
2022-09-05T04:20:47.997Z,2.53
2022-09-05T04:23:37.135Z,2.88
2022-09-05T04:26:19.151Z,2.90
2022-09-05T04:29:31.670Z,3.10
2022-09-05T04:32:29.064Z,2.70
2022-09-05T04:35:30.535Z,2.67
2022-09-05T04:38:40.857Z,2.97
2022-09-05T04:41:12.430Z,2.53
2022-09-05T04:44:15.244Z,2.60
2022-09-05T04:46:53.620Z,2.95
2022-09-05T04:49:33.461Z,2.97
2022-09-05T04:52:31.136Z,3.00
2022-09-05T04:55:51.743Z,2.90
2022-09-05T05:00:33.801Z,2.75
2022-09-05T05:06:11.033Z,2.58
2022-09-05T05:06:16.280Z,2.80
2022-09-05T05:08:05.915Z,2.28
2022-09-05T05:14:24.627Z,2.47
2022-09-05T05:18:13.920Z,2.72
2022-09-05T05:18:15.639Z,2.90
2022-09-05T05:19:41.050Z,2.58
2022-09-05T05:22:16.875Z,2.80
2022-09-05T05:24:52.821Z,3.08
2022-09-05T05:27:42.319Z,2.97
2022-09-05T05:30:12.207Z,2.85
2022-09-05T05:32:49.338Z,3.05
2022-09-05T05:35:33.568Z,3.00
2022-09-05T05:38:57.184Z,3.30
2022-09-05T05:41:54.388Z,10.45
2022-09-05T05:44:35.030Z,4.20
2022-09-05T05:47:31.531Z,2.97
2022-09-05T05:50:19.977Z,3.05
2022-09-05T05:52:53.161Z,2.65
2022-09-05T05:55:52.298Z,2.95
2022-09-05T05:59:24.979Z,2.67
2022-09-05T06:02:36.881Z,2.92
2022-09-05T06:05:59.863Z,2.83
2022-09-05T06:12:13.050Z,2.95
2022-09-05T06:14:56.700Z,2.85
2022-09-05T06:15:46.006Z,2.95
2022-09-05T06:18:54.455Z,2.83
2022-09-05T06:22:11.183Z,3.13
2022-09-05T06:24:58.718Z,2.90
2022-09-05T06:28:01.714Z,2.83
2022-09-05T06:31:31.377Z,2.60
2022-09-05T06:34:33.455Z,3.25
2022-09-05T06:37:06.602Z,3.38
2022-09-05T06:40:17.260Z,3.00
2022-09-05T06:43:19.722Z,4.27
2022-09-05T06:46:54.652Z,3.17
2022-09-05T06:49:46.287Z,2.67
2022-09-05T06:52:35.727Z,3.05
2022-09-05T06:55:29.025Z,3.08
2022-09-05T06:58:02.419Z,3.40
2022-09-05T07:00:49.947Z,3.05
2022-09-05T07:04:33.199Z,3.40
2022-09-05T07:07:24.185Z,3.85
2022-09-05T07:10:22.175Z,3.13
2022-09-05T07:13:33.949Z,3.33
2022-09-05T07:16:22.837Z,3.45
2022-09-05T07:19:29.567Z,3.65
2022-09-05T07:22:47.547Z,3.60
2022-09-05T07:25:27.928Z,3.72
2022-09-05T07:28:28.601Z,3.78
2022-09-05T07:30:58.415Z,3.60
2022-09-05T07:33:30.351Z,3.28
2022-09-05T07:36:12.532Z,3.30
2022-09-05T07:38:55.219Z,3.75
2022-09-05T07:41:31.329Z,3.83
2022-09-05T07:44:17.022Z,4.00
2022-09-05T07:47:01.724Z,3.70
2022-09-05T07:49:33.213Z,4.00
2022-09-05T07:57:10.365Z,3.40
2022-09-05T07:57:15.710Z,3.63
2022-09-05T07:58:15.344Z,3.90
2022-09-05T08:00:51.848Z,3.70
2022-09-05T08:03:31.849Z,4.15
2022-09-05T08:06:06.754Z,4.20
2022-09-05T08:09:18.472Z,4.30
2022-09-05T08:11:47.259Z,3.92
2022-09-05T08:14:44.617Z,3.80
2022-09-05T08:17:30.016Z,3.60
2022-09-05T08:20:09.975Z,4.40
2022-09-05T08:22:59.532Z,4.07
2022-09-05T08:25:57.105Z,3.83
2022-09-05T08:28:39.021Z,4.18
2022-09-05T08:31:20.480Z,4.53
2022-09-05T08:33:49.436Z,4.30
2022-09-05T08:36:46.533Z,4.25
2022-09-05T08:39:21.209Z,4.28
2022-09-05T08:42:25.609Z,4.72
2022-09-05T08:46:44.901Z,4.07
2022-09-05T08:48:31.745Z,4.75
2022-09-05T08:51:32.590Z,4.20
2022-09-05T08:54:30.798Z,3.90
2022-09-05T08:57:18.347Z,4.50
2022-09-05T09:00:20.699Z,4.47
2022-09-05T09:03:06.488Z,4.05
2022-09-05T09:06:13.848Z,4.72
2022-09-05T09:09:14.553Z,3.78
2022-09-05T09:11:55.732Z,4.35
2022-09-05T09:15:23.201Z,3.90
2022-09-05T09:17:52.584Z,4.05
2022-09-05T09:20:31.455Z,4.40
2022-09-05T09:23:32.106Z,4.13
2022-09-05T09:26:16.101Z,3.85
2022-09-05T09:29:04.140Z,4.25
2022-09-05T09:31:47.285Z,4.43
2022-09-05T09:34:26.786Z,3.70
2022-09-05T09:37:25.445Z,4.00
2022-09-05T09:40:52.399Z,4.15
2022-09-05T09:43:58.531Z,3.42
2022-09-05T09:46:43.890Z,3.42
2022-09-05T09:49:38.937Z,3.33
2022-09-05T09:52:25.154Z,3.55
2022-09-05T09:55:40.695Z,3.80
2022-09-05T09:58:34.141Z,3.72
2022-09-05T10:01:36.209Z,3.63
2022-09-05T10:10:33.121Z,3.83
2022-09-05T10:10:56.271Z,3.97
2022-09-05T10:11:03.928Z,3.60
2022-09-05T10:13:52.488Z,4.07
2022-09-05T10:16:58.907Z,3.63
2022-09-05T10:23:11.513Z,3.90
2022-09-05T10:26:27.583Z,4.18
2022-09-05T10:29:44.253Z,3.10
2022-09-05T10:35:10.990Z,4.35
2022-09-05T10:35:42.240Z,3.78
2022-09-05T10:38:25.409Z,3.33
2022-09-05T10:41:21.670Z,3.72
2022-09-05T10:44:02.588Z,3.42
2022-09-05T10:47:23.681Z,3.78
2022-09-05T10:50:11.760Z,3.03
2022-09-05T10:53:25.364Z,3.85
2022-09-05T10:56:21.890Z,3.00
2022-09-05T11:02:16.238Z,3.40
2022-09-05T11:02:33.574Z,3.25
2022-09-05T11:05:31.924Z,3.20
2022-09-05T11:08:29.001Z,3.50
2022-09-05T11:11:28.663Z,3.45
2022-09-05T11:14:26.670Z,4.20
2022-09-05T11:17:07.619Z,3.35
2022-09-05T11:19:45.831Z,3.60
2022-09-05T11:22:23.193Z,3.30
2022-09-05T11:25:04.122Z,3.17
2022-09-05T11:27:46.317Z,3.40
2022-09-05T11:30:30.979Z,3.55
2022-09-05T11:37:52.256Z,3.60
2022-09-05T11:39:55.957Z,3.15
2022-09-05T11:40:31.616Z,3.25
2022-09-05T11:43:07.166Z,3.08
2022-09-05T11:45:46.598Z,3.33
2022-09-05T11:48:38.473Z,3.10
2022-09-05T11:51:26.081Z,3.33
2022-09-05T11:54:26.824Z,2.90
2022-09-05T11:57:33.786Z,3.58
2022-09-05T12:00:33.081Z,3.10
2022-09-05T12:04:02.236Z,2.90
2022-09-05T12:06:36.244Z,2.88
2022-09-05T12:09:18.450Z,3.00
2022-09-05T12:12:41.767Z,3.17
2022-09-05T12:15:36.461Z,2.90
2022-09-05T12:18:36.695Z,2.78
2022-09-05T12:21:38.375Z,3.03
2022-09-05T12:25:16.970Z,2.72
2022-09-05T12:27:41.087Z,2.78
2022-09-05T12:30:05.613Z,2.80
2022-09-05T12:34:15.063Z,2.78
2022-09-05T12:40:48.190Z,2.53
2022-09-05T12:41:00.932Z,5.50
2022-09-05T12:43:14.364Z,2.80
2022-09-05T12:45:58.439Z,2.70
2022-09-05T12:48:38.668Z,2.80
2022-09-05T12:51:46.274Z,2.90
2022-09-05T12:54:34.218Z,2.70
2022-09-05T13:01:08.165Z,2.72
2022-09-05T13:03:05.818Z,2.40
2022-09-05T13:03:27.922Z,2.95
2022-09-05T13:06:24.930Z,2.40
2022-09-05T13:09:03.740Z,2.63
2022-09-05T13:14:59.830Z,2.22
2022-09-05T13:15:21.808Z,2.58
2022-09-05T13:18:13.539Z,2.60
2022-09-05T13:20:56.171Z,2.58
2022-09-05T13:23:32.809Z,2.85
2022-09-05T13:26:08.189Z,2.97
2022-09-05T13:29:03.963Z,2.92
2022-09-05T13:35:06.986Z,2.70
2022-09-05T13:38:06.613Z,2.42
2022-09-05T13:41:04.610Z,2.75
2022-09-05T13:43:38.534Z,9.75
2022-09-05T13:46:11.304Z,7.45
2022-09-05T13:51:54.075Z,2.72
2022-09-05T13:55:03.182Z,2.72
2022-09-05T13:57:46.133Z,2.53
2022-09-05T14:00:28.136Z,2.70
2022-09-05T14:03:39.196Z,3.00
2022-09-05T14:06:48.816Z,2.97
2022-09-05T14:09:36.652Z,3.00
2022-09-05T14:12:29.693Z,3.10
2022-09-05T14:15:41.278Z,2.78
2022-09-05T14:18:26.993Z,3.25
2022-09-05T14:21:15.973Z,3.35
2022-09-05T14:23:56.477Z,2.72
2022-09-05T14:26:48.345Z,3.08
2022-09-05T14:29:35.696Z,2.75
2022-09-05T14:37:40.742Z,2.92
2022-09-05T14:37:51.715Z,3.05
2022-09-05T14:38:43.023Z,2.83
2022-09-05T14:41:35.007Z,2.92
2022-09-05T14:44:41.630Z,2.92
2022-09-05T14:47:53.224Z,3.60
2022-09-05T14:50:49.645Z,2.88
2022-09-05T14:56:47.750Z,3.00
2022-09-05T15:02:48.564Z,3.03
2022-09-05T15:02:51.647Z,3.10
2022-09-05T15:05:46.151Z,2.90
2022-09-05T15:11:23.922Z,3.75
2022-09-05T15:12:19.699Z,3.33
2022-09-05T15:14:12.210Z,4.97
2022-09-05T15:16:45.916Z,3.42
2022-09-05T15:20:05.795Z,3.10
2022-09-05T15:22:38.906Z,3.22
2022-09-05T15:25:21.345Z,2.65
2022-09-05T15:27:49.778Z,2.85
2022-09-05T15:30:35.118Z,2.85
2022-09-05T15:33:25.616Z,2.45
2022-09-05T15:35:54.288Z,2.67
2022-09-05T15:38:30.679Z,4.50
2022-09-05T15:41:13.883Z,2.67
2022-09-05T15:44:09.405Z,4.05
2022-09-05T15:47:06.582Z,2.45
2022-09-05T15:49:49.332Z,3.03
2022-09-05T15:52:16.790Z,3.00
2022-09-05T15:54:52.940Z,2.50
2022-09-05T15:57:52.007Z,2.50
2022-09-05T16:00:41.644Z,2.50
2022-09-05T16:06:03.981Z,2.60
2022-09-05T16:10:30.171Z,2.50
2022-09-05T16:10:44.978Z,2.78
2022-09-05T16:12:34.830Z,2.70
2022-09-05T16:16:52.976Z,2.25
2022-09-05T16:23:17.263Z,2.50
2022-09-05T16:23:26.014Z,4.18
2022-09-05T16:24:10.148Z,3.28
2022-09-05T16:26:47.110Z,2.45
2022-09-05T16:29:26.191Z,3.28
2022-09-05T16:32:02.454Z,3.17
2022-09-05T16:34:57.378Z,2.70
2022-09-05T16:37:27.392Z,3.03
2022-09-05T16:40:04.352Z,4.80
2022-09-05T16:42:47.344Z,3.50
2022-09-05T16:45:45.621Z,2.83
2022-09-05T16:48:39.848Z,3.25
2022-09-05T16:51:44.640Z,2.90
2022-09-05T16:54:28.560Z,3.00
2022-09-05T16:57:28.032Z,2.47
2022-09-05T16:59:56.461Z,2.55
2022-09-05T17:02:28.571Z,2.50
2022-09-05T17:05:22.016Z,2.53
2022-09-05T17:08:08.668Z,3.08
2022-09-05T17:10:57.644Z,3.10
2022-09-05T17:13:48.039Z,2.95
2022-09-05T17:16:29.249Z,2.75
2022-09-05T17:18:59.894Z,3.30
2022-09-05T17:24:23.023Z,3.20
2022-09-05T17:29:23.975Z,3.15
2022-09-05T17:29:28.935Z,3.30
2022-09-05T17:32:56.370Z,3.30
2022-09-05T17:35:41.721Z,3.17
2022-09-05T17:38:33.050Z,3.28
2022-09-05T17:41:35.374Z,3.03
2022-09-05T17:44:29.992Z,3.35
2022-09-05T17:47:28.886Z,3.30
2022-09-05T17:50:33.299Z,3.30
2022-09-05T17:53:25.666Z,3.30
2022-09-05T17:55:55.249Z,3.25
2022-09-05T17:58:49.139Z,3.15
2022-09-05T18:01:28.573Z,3.40
2022-09-05T18:04:17.056Z,3.20
2022-09-05T18:06:59.059Z,2.80
2022-09-05T18:09:40.783Z,3.17
2022-09-05T18:15:40.533Z,3.22
2022-09-05T18:19:27.731Z,3.30
2022-09-05T18:21:23.079Z,3.40
2022-09-05T18:24:01.061Z,3.30
2022-09-05T18:26:29.576Z,3.22
2022-09-05T18:29:58.345Z,2.88
2022-09-05T18:33:53.855Z,3.13
2022-09-05T18:36:09.885Z,2.88
2022-09-05T18:38:51.512Z,3.13
2022-09-05T18:41:23.199Z,3.42
2022-09-05T18:44:13.046Z,2.97
2022-09-05T18:46:48.050Z,3.60
2022-09-05T18:50:21.425Z,3.50
2022-09-05T18:52:30.530Z,3.17
2022-09-05T18:55:52.662Z,3.63
2022-09-05T18:58:12.335Z,3.42
2022-09-05T19:00:44.552Z,4.30
2022-09-05T19:03:18.002Z,3.40
2022-09-05T19:06:34.781Z,3.78
2022-09-05T19:09:02.234Z,3.17
2022-09-05T19:11:53.929Z,3.03
2022-09-05T19:14:45.667Z,3.53
2022-09-05T19:17:27.484Z,3.38
2022-09-05T19:20:31.400Z,3.25
2022-09-05T19:23:11.862Z,3.38
2022-09-05T19:25:46.379Z,2.95
2022-09-05T19:34:50.474Z,3.42
2022-09-05T19:36:45.019Z,3.25
2022-09-05T19:37:06.829Z,3.30
2022-09-05T19:37:37.359Z,3.33
2022-09-05T19:45:43.024Z,3.15
2022-09-05T19:47:38.168Z,3.50
2022-09-05T19:47:42.606Z,4.15
2022-09-05T19:48:27.641Z,3.40
2022-09-05T19:51:16.921Z,3.47
2022-09-05T19:54:04.589Z,3.80
2022-09-05T19:56:42.130Z,3.95
2022-09-05T19:59:34.093Z,3.88
2022-09-05T20:02:03.387Z,3.85
2022-09-05T20:04:38.611Z,3.72
2022-09-05T20:07:19.094Z,3.92
2022-09-05T20:09:49.545Z,3.83
2022-09-05T20:12:25.439Z,4.00
2022-09-05T20:14:52.868Z,3.85
2022-09-05T20:17:30.022Z,3.63
2022-09-05T20:20:22.483Z,4.03
2022-09-05T20:22:59.256Z,4.18
2022-09-05T20:25:48.285Z,3.95
2022-09-05T20:28:23.414Z,4.18
2022-09-05T20:30:59.346Z,4.22
2022-09-05T20:33:35.101Z,3.97
2022-09-05T20:40:35.811Z,4.10
2022-09-05T20:43:20.997Z,4.50
2022-09-05T20:43:31.715Z,4.63
2022-09-05T20:45:44.939Z,4.10
2022-09-05T20:54:08.902Z,4.25
2022-09-05T20:54:26.822Z,4.35
2022-09-05T20:54:28.316Z,4.18
2022-09-05T20:56:48.911Z,5.00
2022-09-05T20:59:35.616Z,4.72
2022-09-05T21:02:07.226Z,5.30
2022-09-05T21:04:38.900Z,5.55
2022-09-05T21:07:23.077Z,4.65
2022-09-05T21:09:59.963Z,5.20
2022-09-05T21:12:45.898Z,5.15
2022-09-05T21:15:52.027Z,5.03
2022-09-05T21:18:33.027Z,4.97
2022-09-05T21:21:27.885Z,4.88
2022-09-05T21:24:16.346Z,4.93
2022-09-05T21:26:48.055Z,4.85
2022-09-05T21:29:32.938Z,4.72
2022-09-05T21:32:09.765Z,4.30
2022-09-05T21:34:47.493Z,4.88
2022-09-05T21:37:18.896Z,4.72
2022-09-05T21:39:59.080Z,5.15
2022-09-05T21:47:48.432Z,4.53
2022-09-05T21:48:09.060Z,5.25
2022-09-05T21:50:54.330Z,5.10
2022-09-05T21:59:13.340Z,5.05
2022-09-05T21:59:25.235Z,5.40
2022-09-05T22:02:08.686Z,4.32
2022-09-05T22:04:41.756Z,4.85
2022-09-05T22:07:19.584Z,5.18
2022-09-05T22:10:00.023Z,4.90
2022-09-05T22:12:33.755Z,5.57
2022-09-05T22:15:05.964Z,4.82
2022-09-05T22:17:54.414Z,5.20
2022-09-05T22:20:29.059Z,5.60
2022-09-05T22:22:57.205Z,5.15
2022-09-05T22:25:31.740Z,5.68
2022-09-05T22:28:18.296Z,5.22
2022-09-05T22:30:46.235Z,5.40
2022-09-05T22:33:13.891Z,5.18
2022-09-05T22:35:42.102Z,5.70
2022-09-05T22:38:19.258Z,5.05
2022-09-05T22:40:49.349Z,6.03
2022-09-05T22:43:17.279Z,6.07
2022-09-05T22:45:44.898Z,5.50
2022-09-05T22:48:14.865Z,5.32
2022-09-05T22:50:43.342Z,4.75
2022-09-05T22:53:11.277Z,5.47
2022-09-05T22:55:41.483Z,5.53
2022-09-05T22:58:11.200Z,5.20
2022-09-05T23:00:40.120Z,5.95
2022-09-05T23:03:08.230Z,5.28
2022-09-05T23:05:36.104Z,5.47
2022-09-05T23:08:05.879Z,5.65
2022-09-05T23:10:35.039Z,5.25
2022-09-05T23:13:08.328Z,5.60
2022-09-05T23:15:37.170Z,5.43
2022-09-05T23:18:05.331Z,5.47
2022-09-05T23:20:33.780Z,5.30
2022-09-05T23:23:06.354Z,5.78
2022-09-05T23:25:35.554Z,5.53
2022-09-05T23:28:08.178Z,5.28
2022-09-05T23:30:38.324Z,4.85
2022-09-05T23:33:08.237Z,5.28
2022-09-05T23:35:37.308Z,5.35
2022-09-05T23:38:10.498Z,5.25
2022-09-05T23:40:39.275Z,5.38
2022-09-05T23:43:07.688Z,5.28
2022-09-05T23:45:36.231Z,5.95
2022-09-05T23:48:04.404Z,5.75
2022-09-05T23:50:32.232Z,5.30
2022-09-05T23:53:04.860Z,5.35
2022-09-05T23:55:33.031Z,5.57
2022-09-05T23:58:00.900Z,5.32
